sensor_id;sensor_type;location;lat;lon;timestamp;P1;durP1;ratioP1;P2;durP2;ratioP2
23747;SDS011;12054;53.662;10.126;2023-07-09T00:00:48;2.63;;;2.05;;
23747;SDS011;12054;53.662;10.126;2023-07-09T00:03:14;4.85;;;2.13;;
23747;SDS011;12054;53.662;10.126;2023-07-09T00:05:40;3.55;;;2.22;;
23747;SDS011;12054;53.662;10.126;2023-07-09T00:08:07;3.15;;;2.20;;
23747;SDS011;12054;53.662;10.126;2023-07-09T00:10:49;5.38;;;2.55;;
23747;SDS011;12054;53.662;10.126;2023-07-09T00:13:14;4.50;;;2.25;;
23747;SDS011;12054;53.662;10.126;2023-07-09T00:15:41;3.30;;;2.60;;
23747;SDS011;12054;53.662;10.126;2023-07-09T00:18:07;5.57;;;2.75;;
23747;SDS011;12054;53.662;10.126;2023-07-09T00:20:34;2.60;;;2.15;;
23747;SDS011;12054;53.662;10.126;2023-07-09T00:23:00;5.25;;;2.60;;
23747;SDS011;12054;53.662;10.126;2023-07-09T00:25:25;3.65;;;2.58;;
23747;SDS011;12054;53.662;10.126;2023-07-09T00:27:51;2.92;;;2.53;;
23747;SDS011;12054;53.662;10.126;2023-07-09T00:30:18;4.35;;;2.50;;
23747;SDS011;12054;53.662;10.126;2023-07-09T00:32:46;5.15;;;2.53;;
23747;SDS011;12054;53.662;10.126;2023-07-09T00:35:16;4.50;;;2.63;;
23747;SDS011;12054;53.662;10.126;2023-07-09T00:37:43;4.50;;;2.47;;
23747;SDS011;12054;53.662;10.126;2023-07-09T00:40:19;3.30;;;2.67;;
23747;SDS011;12054;53.662;10.126;2023-07-09T00:42:52;3.13;;;2.50;;
23747;SDS011;12054;53.662;10.126;2023-07-09T00:45:20;3.42;;;2.75;;
23747;SDS011;12054;53.662;10.126;2023-07-09T00:47:58;8.88;;;3.83;;
23747;SDS011;12054;53.662;10.126;2023-07-09T00:50:34;3.50;;;2.40;;
23747;SDS011;12054;53.662;10.126;2023-07-09T00:53:10;5.05;;;3.00;;
23747;SDS011;12054;53.662;10.126;2023-07-09T00:55:44;4.10;;;2.40;;
23747;SDS011;12054;53.662;10.126;2023-07-09T00:58:18;3.85;;;2.38;;
23747;SDS011;12054;53.662;10.126;2023-07-09T01:00:47;6.15;;;2.65;;
23747;SDS011;12054;53.662;10.126;2023-07-09T01:03:23;2.88;;;2.40;;
23747;SDS011;12054;53.662;10.126;2023-07-09T01:05:54;5.68;;;2.58;;
23747;SDS011;12054;53.662;10.126;2023-07-09T01:08:22;5.18;;;2.47;;
23747;SDS011;12054;53.662;10.126;2023-07-09T01:10:48;3.33;;;2.58;;
23747;SDS011;12054;53.662;10.126;2023-07-09T01:13:14;3.67;;;2.70;;
23747;SDS011;12054;53.662;10.126;2023-07-09T01:15:41;4.13;;;2.58;;
23747;SDS011;12054;53.662;10.126;2023-07-09T01:18:07;3.03;;;2.70;;
23747;SDS011;12054;53.662;10.126;2023-07-09T01:20:34;3.35;;;2.38;;
23747;SDS011;12054;53.662;10.126;2023-07-09T01:23:00;3.65;;;2.42;;
23747;SDS011;12054;53.662;10.126;2023-07-09T01:25:26;4.30;;;2.63;;
23747;SDS011;12054;53.662;10.126;2023-07-09T01:27:53;2.70;;;2.50;;
23747;SDS011;12054;53.662;10.126;2023-07-09T01:30:22;3.90;;;2.47;;
23747;SDS011;12054;53.662;10.126;2023-07-09T01:32:50;5.13;;;2.80;;
23747;SDS011;12054;53.662;10.126;2023-07-09T01:35:20;3.55;;;2.10;;
23747;SDS011;12054;53.662;10.126;2023-07-09T01:37:46;6.03;;;2.50;;
23747;SDS011;12054;53.662;10.126;2023-07-09T01:40:14;3.83;;;2.58;;
23747;SDS011;12054;53.662;10.126;2023-07-09T01:42:42;3.75;;;2.85;;
23747;SDS011;12054;53.662;10.126;2023-07-09T01:45:08;4.50;;;2.58;;
23747;SDS011;12054;53.662;10.126;2023-07-09T01:47:35;3.92;;;2.30;;
23747;SDS011;12054;53.662;10.126;2023-07-09T01:50:01;4.13;;;2.40;;
23747;SDS011;12054;53.662;10.126;2023-07-09T01:52:28;6.63;;;2.75;;
23747;SDS011;12054;53.662;10.126;2023-07-09T01:54:56;4.60;;;2.70;;
23747;SDS011;12054;53.662;10.126;2023-07-09T01:57:23;5.32;;;2.58;;
23747;SDS011;12054;53.662;10.126;2023-07-09T01:59:51;4.00;;;3.00;;
23747;SDS011;12054;53.662;10.126;2023-07-09T02:02:21;5.70;;;2.90;;
23747;SDS011;12054;53.662;10.126;2023-07-09T02:04:51;4.15;;;2.78;;
23747;SDS011;12054;53.662;10.126;2023-07-09T02:07:19;4.00;;;2.65;;
23747;SDS011;12054;53.662;10.126;2023-07-09T02:09:46;3.45;;;2.47;;
23747;SDS011;12054;53.662;10.126;2023-07-09T02:12:12;2.50;;;2.22;;
23747;SDS011;12054;53.662;10.126;2023-07-09T02:14:39;4.63;;;2.70;;
23747;SDS011;12054;53.662;10.126;2023-07-09T02:17:05;3.33;;;2.70;;
23747;SDS011;12054;53.662;10.126;2023-07-09T02:19:32;5.80;;;2.45;;
23747;SDS011;12054;53.662;10.126;2023-07-09T02:21:58;3.60;;;2.53;;
23747;SDS011;12054;53.662;10.126;2023-07-09T02:24:23;4.05;;;3.20;;
23747;SDS011;12054;53.662;10.126;2023-07-09T02:26:56;4.05;;;2.75;;
23747;SDS011;12054;53.662;10.126;2023-07-09T02:29:23;3.20;;;2.55;;
23747;SDS011;12054;53.662;10.126;2023-07-09T02:31:50;4.47;;;2.70;;
23747;SDS011;12054;53.662;10.126;2023-07-09T02:34:17;3.53;;;2.60;;
23747;SDS011;12054;53.662;10.126;2023-07-09T02:36:43;6.35;;;2.53;;
23747;SDS011;12054;53.662;10.126;2023-07-09T02:39:10;3.75;;;2.60;;
23747;SDS011;12054;53.662;10.126;2023-07-09T02:41:36;4.15;;;2.63;;
23747;SDS011;12054;53.662;10.126;2023-07-09T02:44:02;3.67;;;2.80;;
23747;SDS011;12054;53.662;10.126;2023-07-09T02:46:28;3.47;;;2.40;;
23747;SDS011;12054;53.662;10.126;2023-07-09T02:48:54;10.88;;;2.60;;
23747;SDS011;12054;53.662;10.126;2023-07-09T02:51:20;3.17;;;2.88;;
23747;SDS011;12054;53.662;10.126;2023-07-09T02:53:46;8.38;;;2.78;;
23747;SDS011;12054;53.662;10.126;2023-07-09T02:56:12;3.65;;;3.00;;
23747;SDS011;12054;53.662;10.126;2023-07-09T02:58:37;5.28;;;2.83;;
23747;SDS011;12054;53.662;10.126;2023-07-09T03:01:03;3.15;;;2.72;;
23747;SDS011;12054;53.662;10.126;2023-07-09T03:03:30;4.40;;;2.50;;
23747;SDS011;12054;53.662;10.126;2023-07-09T03:05:55;5.30;;;3.10;;
23747;SDS011;12054;53.662;10.126;2023-07-09T03:08:21;4.55;;;2.83;;
23747;SDS011;12054;53.662;10.126;2023-07-09T03:10:47;2.88;;;2.58;;
23747;SDS011;12054;53.662;10.126;2023-07-09T03:13:12;3.97;;;2.85;;
23747;SDS011;12054;53.662;10.126;2023-07-09T03:15:38;3.47;;;2.55;;
23747;SDS011;12054;53.662;10.126;2023-07-09T03:18:03;4.03;;;2.63;;
23747;SDS011;12054;53.662;10.126;2023-07-09T03:20:29;3.88;;;2.78;;
23747;SDS011;12054;53.662;10.126;2023-07-09T03:22:54;2.97;;;2.63;;
23747;SDS011;12054;53.662;10.126;2023-07-09T03:25:20;3.17;;;2.88;;
23747;SDS011;12054;53.662;10.126;2023-07-09T03:27:48;3.30;;;3.00;;
23747;SDS011;12054;53.662;10.126;2023-07-09T03:30:14;5.50;;;2.95;;
23747;SDS011;12054;53.662;10.126;2023-07-09T03:32:39;3.60;;;2.80;;
23747;SDS011;12054;53.662;10.126;2023-07-09T03:35:05;4.78;;;2.72;;
23747;SDS011;12054;53.662;10.126;2023-07-09T03:37:31;3.05;;;2.60;;
23747;SDS011;12054;53.662;10.126;2023-07-09T03:39:57;3.35;;;2.67;;
23747;SDS011;12054;53.662;10.126;2023-07-09T03:42:23;2.50;;;2.30;;
23747;SDS011;12054;53.662;10.126;2023-07-09T03:44:48;4.45;;;2.60;;
23747;SDS011;12054;53.662;10.126;2023-07-09T03:47:13;4.32;;;2.83;;
23747;SDS011;12054;53.662;10.126;2023-07-09T03:49:39;3.45;;;2.42;;
23747;SDS011;12054;53.662;10.126;2023-07-09T03:52:06;4.55;;;2.50;;
23747;SDS011;12054;53.662;10.126;2023-07-09T03:54:32;4.78;;;2.75;;
23747;SDS011;12054;53.662;10.126;2023-07-09T03:56:58;3.65;;;2.47;;
23747;SDS011;12054;53.662;10.126;2023-07-09T03:59:24;3.85;;;2.63;;
23747;SDS011;12054;53.662;10.126;2023-07-09T04:01:49;3.33;;;2.50;;
23747;SDS011;12054;53.662;10.126;2023-07-09T04:04:15;3.55;;;2.58;;
23747;SDS011;12054;53.662;10.126;2023-07-09T04:06:45;5.88;;;2.50;;
23747;SDS011;12054;53.662;10.126;2023-07-09T04:09:10;2.83;;;2.42;;
23747;SDS011;12054;53.662;10.126;2023-07-09T04:11:36;3.90;;;2.75;;
23747;SDS011;12054;53.662;10.126;2023-07-09T04:14:01;3.92;;;2.72;;
23747;SDS011;12054;53.662;10.126;2023-07-09T04:16:27;4.07;;;2.50;;
23747;SDS011;12054;53.662;10.126;2023-07-09T04:18:52;3.20;;;2.55;;
23747;SDS011;12054;53.662;10.126;2023-07-09T04:21:18;3.75;;;2.65;;
23747;SDS011;12054;53.662;10.126;2023-07-09T04:23:43;4.35;;;2.83;;
23747;SDS011;12054;53.662;10.126;2023-07-09T04:26:12;5.07;;;2.90;;
23747;SDS011;12054;53.662;10.126;2023-07-09T04:28:38;3.53;;;2.67;;
23747;SDS011;12054;53.662;10.126;2023-07-09T04:31:04;3.35;;;2.47;;
23747;SDS011;12054;53.662;10.126;2023-07-09T04:33:30;4.25;;;2.63;;
23747;SDS011;12054;53.662;10.126;2023-07-09T04:35:55;3.45;;;2.67;;
23747;SDS011;12054;53.662;10.126;2023-07-09T04:38:21;3.08;;;2.47;;
23747;SDS011;12054;53.662;10.126;2023-07-09T04:40:47;2.90;;;2.45;;
23747;SDS011;12054;53.662;10.126;2023-07-09T04:43:12;3.10;;;2.70;;
23747;SDS011;12054;53.662;10.126;2023-07-09T04:45:38;3.55;;;2.70;;
23747;SDS011;12054;53.662;10.126;2023-07-09T04:48:03;3.92;;;2.72;;
23747;SDS011;12054;53.662;10.126;2023-07-09T04:50:29;3.88;;;2.60;;
23747;SDS011;12054;53.662;10.126;2023-07-09T04:52:55;4.25;;;2.92;;
23747;SDS011;12054;53.662;10.126;2023-07-09T04:55:20;3.88;;;2.80;;
23747;SDS011;12054;53.662;10.126;2023-07-09T04:57:47;3.13;;;2.50;;
23747;SDS011;12054;53.662;10.126;2023-07-09T05:00:12;4.38;;;3.00;;
23747;SDS011;12054;53.662;10.126;2023-07-09T05:02:39;3.70;;;2.47;;
23747;SDS011;12054;53.662;10.126;2023-07-09T05:05:05;4.03;;;2.63;;
23747;SDS011;12054;53.662;10.126;2023-07-09T05:07:32;3.20;;;2.67;;
23747;SDS011;12054;53.662;10.126;2023-07-09T05:09:58;3.83;;;2.85;;
23747;SDS011;12054;53.662;10.126;2023-07-09T05:12:25;4.22;;;2.92;;
23747;SDS011;12054;53.662;10.126;2023-07-09T05:14:51;4.13;;;2.72;;
23747;SDS011;12054;53.662;10.126;2023-07-09T05:17:17;3.45;;;2.92;;
23747;SDS011;12054;53.662;10.126;2023-07-09T05:19:42;3.75;;;3.05;;
23747;SDS011;12054;53.662;10.126;2023-07-09T05:22:08;4.07;;;2.70;;
23747;SDS011;12054;53.662;10.126;2023-07-09T05:24:34;3.10;;;2.72;;
23747;SDS011;12054;53.662;10.126;2023-07-09T05:27:00;4.38;;;3.03;;
23747;SDS011;12054;53.662;10.126;2023-07-09T05:29:26;4.10;;;3.00;;
23747;SDS011;12054;53.662;10.126;2023-07-09T05:31:51;4.00;;;2.90;;
23747;SDS011;12054;53.662;10.126;2023-07-09T05:34:17;4.63;;;3.38;;
23747;SDS011;12054;53.662;10.126;2023-07-09T05:36:43;5.28;;;3.10;;
23747;SDS011;12054;53.662;10.126;2023-07-09T05:39:09;5.18;;;3.15;;
23747;SDS011;12054;53.662;10.126;2023-07-09T05:41:35;4.93;;;3.40;;
23747;SDS011;12054;53.662;10.126;2023-07-09T05:44:01;5.18;;;3.30;;
23747;SDS011;12054;53.662;10.126;2023-07-09T05:46:27;3.88;;;3.08;;
23747;SDS011;12054;53.662;10.126;2023-07-09T05:48:52;3.75;;;3.00;;
23747;SDS011;12054;53.662;10.126;2023-07-09T05:51:18;3.53;;;3.10;;
23747;SDS011;12054;53.662;10.126;2023-07-09T05:53:43;3.72;;;3.13;;
23747;SDS011;12054;53.662;10.126;2023-07-09T05:56:09;3.88;;;2.97;;
23747;SDS011;12054;53.662;10.126;2023-07-09T05:58:35;6.50;;;3.53;;
23747;SDS011;12054;53.662;10.126;2023-07-09T06:01:01;3.47;;;3.10;;
23747;SDS011;12054;53.662;10.126;2023-07-09T06:03:28;6.30;;;3.20;;
23747;SDS011;12054;53.662;10.126;2023-07-09T06:05:54;3.95;;;3.20;;
23747;SDS011;12054;53.662;10.126;2023-07-09T06:08:22;4.13;;;3.20;;
23747;SDS011;12054;53.662;10.126;2023-07-09T06:10:57;4.72;;;3.03;;
23747;SDS011;12054;53.662;10.126;2023-07-09T06:13:27;5.05;;;3.15;;
23747;SDS011;12054;53.662;10.126;2023-07-09T06:15:55;3.88;;;3.20;;
23747;SDS011;12054;53.662;10.126;2023-07-09T06:18:22;3.92;;;3.15;;
23747;SDS011;12054;53.662;10.126;2023-07-09T06:20:49;6.28;;;3.40;;
23747;SDS011;12054;53.662;10.126;2023-07-09T06:23:16;4.05;;;3.53;;
23747;SDS011;12054;53.662;10.126;2023-07-09T06:25:43;4.78;;;3.33;;
23747;SDS011;12054;53.662;10.126;2023-07-09T06:28:13;3.67;;;3.38;;
23747;SDS011;12054;53.662;10.126;2023-07-09T06:30:40;6.50;;;3.78;;
23747;SDS011;12054;53.662;10.126;2023-07-09T06:33:05;3.50;;;3.20;;
23747;SDS011;12054;53.662;10.126;2023-07-09T06:35:31;4.25;;;3.45;;
23747;SDS011;12054;53.662;10.126;2023-07-09T06:37:57;3.92;;;3.05;;
23747;SDS011;12054;53.662;10.126;2023-07-09T06:40:23;8.32;;;3.47;;
23747;SDS011;12054;53.662;10.126;2023-07-09T06:42:49;5.15;;;3.45;;
23747;SDS011;12054;53.662;10.126;2023-07-09T06:45:15;4.60;;;3.45;;
23747;SDS011;12054;53.662;10.126;2023-07-09T06:47:41;6.78;;;3.30;;
23747;SDS011;12054;53.662;10.126;2023-07-09T06:50:07;4.45;;;3.47;;
23747;SDS011;12054;53.662;10.126;2023-07-09T06:52:33;5.18;;;3.35;;
23747;SDS011;12054;53.662;10.126;2023-07-09T06:54:58;4.50;;;3.22;;
23747;SDS011;12054;53.662;10.126;2023-07-09T06:57:24;4.90;;;3.70;;
23747;SDS011;12054;53.662;10.126;2023-07-09T06:59:49;3.90;;;3.50;;
23747;SDS011;12054;53.662;10.126;2023-07-09T07:02:15;6.28;;;3.67;;
23747;SDS011;12054;53.662;10.126;2023-07-09T07:04:40;4.35;;;3.50;;
23747;SDS011;12054;53.662;10.126;2023-07-09T07:07:06;7.28;;;3.60;;
23747;SDS011;12054;53.662;10.126;2023-07-09T07:09:32;5.35;;;3.60;;
23747;SDS011;12054;53.662;10.126;2023-07-09T07:11:57;3.92;;;3.25;;
23747;SDS011;12054;53.662;10.126;2023-07-09T07:14:23;4.57;;;3.35;;
23747;SDS011;12054;53.662;10.126;2023-07-09T07:16:48;4.38;;;3.50;;
23747;SDS011;12054;53.662;10.126;2023-07-09T07:19:14;4.15;;;3.63;;
23747;SDS011;12054;53.662;10.126;2023-07-09T07:21:40;3.65;;;3.25;;
23747;SDS011;12054;53.662;10.126;2023-07-09T07:24:05;4.05;;;3.47;;
23747;SDS011;12054;53.662;10.126;2023-07-09T07:26:31;7.05;;;3.45;;
23747;SDS011;12054;53.662;10.126;2023-07-09T07:28:57;5.35;;;3.80;;
23747;SDS011;12054;53.662;10.126;2023-07-09T07:31:22;4.45;;;3.60;;
23747;SDS011;12054;53.662;10.126;2023-07-09T07:33:48;4.00;;;3.35;;
23747;SDS011;12054;53.662;10.126;2023-07-09T07:36:13;4.35;;;3.35;;
23747;SDS011;12054;53.662;10.126;2023-07-09T07:38:39;4.10;;;3.58;;
23747;SDS011;12054;53.662;10.126;2023-07-09T07:41:04;4.13;;;3.80;;
23747;SDS011;12054;53.662;10.126;2023-07-09T07:43:30;6.40;;;4.00;;
23747;SDS011;12054;53.662;10.126;2023-07-09T07:45:56;5.68;;;4.68;;
23747;SDS011;12054;53.662;10.126;2023-07-09T07:48:21;5.05;;;3.92;;
23747;SDS011;12054;53.662;10.126;2023-07-09T07:50:47;6.65;;;4.07;;
23747;SDS011;12054;53.662;10.126;2023-07-09T07:53:13;5.05;;;4.15;;
23747;SDS011;12054;53.662;10.126;2023-07-09T07:55:42;6.38;;;3.85;;
23747;SDS011;12054;53.662;10.126;2023-07-09T07:58:11;4.78;;;3.95;;
23747;SDS011;12054;53.662;10.126;2023-07-09T08:00:38;4.93;;;4.20;;
23747;SDS011;12054;53.662;10.126;2023-07-09T08:03:04;5.60;;;4.47;;
23747;SDS011;12054;53.662;10.126;2023-07-09T08:05:29;4.70;;;4.00;;
23747;SDS011;12054;53.662;10.126;2023-07-09T08:07:55;6.05;;;4.32;;
23747;SDS011;12054;53.662;10.126;2023-07-09T08:10:20;5.90;;;4.13;;
23747;SDS011;12054;53.662;10.126;2023-07-09T08:12:46;4.50;;;3.95;;
23747;SDS011;12054;53.662;10.126;2023-07-09T08:15:12;4.20;;;3.83;;
23747;SDS011;12054;53.662;10.126;2023-07-09T08:17:38;4.18;;;3.72;;
23747;SDS011;12054;53.662;10.126;2023-07-09T08:20:03;5.63;;;3.97;;
23747;SDS011;12054;53.662;10.126;2023-07-09T08:22:29;4.90;;;4.00;;
23747;SDS011;12054;53.662;10.126;2023-07-09T08:24:55;5.45;;;4.18;;
23747;SDS011;12054;53.662;10.126;2023-07-09T08:27:20;6.35;;;4.13;;
23747;SDS011;12054;53.662;10.126;2023-07-09T08:29:46;6.97;;;4.35;;
23747;SDS011;12054;53.662;10.126;2023-07-09T08:32:12;4.47;;;4.03;;
23747;SDS011;12054;53.662;10.126;2023-07-09T08:34:39;5.32;;;4.38;;
23747;SDS011;12054;53.662;10.126;2023-07-09T08:37:05;4.88;;;4.38;;
23747;SDS011;12054;53.662;10.126;2023-07-09T08:39:33;5.95;;;4.40;;
23747;SDS011;12054;53.662;10.126;2023-07-09T08:44:58;4.90;;;4.40;;
23747;SDS011;12054;53.662;10.126;2023-07-09T08:47:43;5.15;;;4.10;;
23747;SDS011;12054;53.662;10.126;2023-07-09T08:50:17;5.07;;;4.30;;
23747;SDS011;12054;53.662;10.126;2023-07-09T08:52:46;4.53;;;4.07;;
23747;SDS011;12054;53.662;10.126;2023-07-09T08:55:16;7.70;;;4.80;;
23747;SDS011;12054;53.662;10.126;2023-07-09T08:57:50;5.00;;;4.55;;
23747;SDS011;12054;53.662;10.126;2023-07-09T09:00:32;4.82;;;4.30;;
23747;SDS011;12054;53.662;10.126;2023-07-09T09:03:14;5.43;;;4.93;;
23747;SDS011;12054;53.662;10.126;2023-07-09T09:05:53;4.78;;;4.38;;
23747;SDS011;12054;53.662;10.126;2023-07-09T09:11:19;4.93;;;4.43;;
23747;SDS011;12054;53.662;10.126;2023-07-09T09:13:50;4.50;;;4.10;;
23747;SDS011;12054;53.662;10.126;2023-07-09T09:16:26;5.57;;;4.95;;
23747;SDS011;12054;53.662;10.126;2023-07-09T09:18:55;6.80;;;4.70;;
23747;SDS011;12054;53.662;10.126;2023-07-09T09:23:53;5.25;;;4.85;;
23747;SDS011;12054;53.662;10.126;2023-07-09T09:26:27;5.35;;;4.50;;
23747;SDS011;12054;53.662;10.126;2023-07-09T09:28:53;6.68;;;4.90;;
23747;SDS011;12054;53.662;10.126;2023-07-09T09:31:19;5.47;;;4.50;;
23747;SDS011;12054;53.662;10.126;2023-07-09T09:33:46;6.20;;;5.13;;
23747;SDS011;12054;53.662;10.126;2023-07-09T09:36:20;5.80;;;5.10;;
23747;SDS011;12054;53.662;10.126;2023-07-09T09:38:48;5.93;;;4.57;;
23747;SDS011;12054;53.662;10.126;2023-07-09T09:41:17;7.60;;;4.90;;
23747;SDS011;12054;53.662;10.126;2023-07-09T09:43:52;6.82;;;5.45;;
23747;SDS011;12054;53.662;10.126;2023-07-09T09:46:19;5.35;;;4.80;;
23747;SDS011;12054;53.662;10.126;2023-07-09T09:48:50;7.70;;;4.93;;
23747;SDS011;12054;53.662;10.126;2023-07-09T09:51:19;7.10;;;5.00;;
23747;SDS011;12054;53.662;10.126;2023-07-09T09:53:47;5.38;;;4.88;;
23747;SDS011;12054;53.662;10.126;2023-07-09T09:56:17;5.25;;;4.75;;
23747;SDS011;12054;53.662;10.126;2023-07-09T09:58:45;5.22;;;4.72;;
23747;SDS011;12054;53.662;10.126;2023-07-09T10:01:14;7.05;;;5.20;;
23747;SDS011;12054;53.662;10.126;2023-07-09T10:03:41;7.18;;;5.25;;
23747;SDS011;12054;53.662;10.126;2023-07-09T10:06:18;7.20;;;5.40;;
23747;SDS011;12054;53.662;10.126;2023-07-09T10:08:52;5.55;;;4.70;;
23747;SDS011;12054;53.662;10.126;2023-07-09T10:11:29;7.35;;;5.38;;
23747;SDS011;12054;53.662;10.126;2023-07-09T10:14:19;5.20;;;4.80;;
23747;SDS011;12054;53.662;10.126;2023-07-09T10:16:56;5.95;;;5.18;;
23747;SDS011;12054;53.662;10.126;2023-07-09T10:19:59;7.35;;;4.75;;
23747;SDS011;12054;53.662;10.126;2023-07-09T10:22:50;5.65;;;4.97;;
23747;SDS011;12054;53.662;10.126;2023-07-09T10:28:27;6.47;;;5.05;;
23747;SDS011;12054;53.662;10.126;2023-07-09T10:31:16;5.57;;;5.00;;
23747;SDS011;12054;53.662;10.126;2023-07-09T10:33:56;4.90;;;4.55;;
23747;SDS011;12054;53.662;10.126;2023-07-09T10:41:44;6.70;;;5.38;;
23747;SDS011;12054;53.662;10.126;2023-07-09T10:44:18;6.47;;;5.30;;
23747;SDS011;12054;53.662;10.126;2023-07-09T10:46:49;5.93;;;5.20;;
23747;SDS011;12054;53.662;10.126;2023-07-09T10:49:18;7.38;;;5.35;;
23747;SDS011;12054;53.662;10.126;2023-07-09T10:51:50;5.60;;;5.10;;
23747;SDS011;12054;53.662;10.126;2023-07-09T10:54:33;6.05;;;5.20;;
23747;SDS011;12054;53.662;10.126;2023-07-09T10:57:27;5.82;;;5.30;;
23747;SDS011;12054;53.662;10.126;2023-07-09T10:59:53;6.88;;;5.10;;
23747;SDS011;12054;53.662;10.126;2023-07-09T11:02:21;5.63;;;5.00;;
23747;SDS011;12054;53.662;10.126;2023-07-09T11:05:04;6.65;;;5.72;;
23747;SDS011;12054;53.662;10.126;2023-07-09T11:07:36;5.35;;;4.85;;
23747;SDS011;12054;53.662;10.126;2023-07-09T11:10:16;5.97;;;5.38;;
23747;SDS011;12054;53.662;10.126;2023-07-09T11:13:03;5.65;;;5.00;;
23747;SDS011;12054;53.662;10.126;2023-07-09T11:15:37;5.55;;;5.05;;
23747;SDS011;12054;53.662;10.126;2023-07-09T11:18:07;8.13;;;5.82;;
23747;SDS011;12054;53.662;10.126;2023-07-09T11:20:42;8.00;;;5.70;;
23747;SDS011;12054;53.662;10.126;2023-07-09T11:23:20;7.00;;;5.82;;
23747;SDS011;12054;53.662;10.126;2023-07-09T11:26:09;6.18;;;5.60;;
23747;SDS011;12054;53.662;10.126;2023-07-09T11:28:37;5.80;;;5.20;;
23747;SDS011;12054;53.662;10.126;2023-07-09T11:33:59;6.00;;;5.50;;
23747;SDS011;12054;53.662;10.126;2023-07-09T11:39:27;5.70;;;5.20;;
23747;SDS011;12054;53.662;10.126;2023-07-09T11:45:11;6.55;;;5.32;;
23747;SDS011;12054;53.662;10.126;2023-07-09T11:50:48;6.53;;;5.90;;
23747;SDS011;12054;53.662;10.126;2023-07-09T11:53:28;6.88;;;5.72;;
23747;SDS011;12054;53.662;10.126;2023-07-09T11:56:13;7.55;;;6.00;;
23747;SDS011;12054;53.662;10.126;2023-07-09T11:58:48;6.00;;;5.40;;
23747;SDS011;12054;53.662;10.126;2023-07-09T12:01:34;6.55;;;5.68;;
23747;SDS011;12054;53.662;10.126;2023-07-09T12:04:11;6.20;;;5.70;;
23747;SDS011;12054;53.662;10.126;2023-07-09T12:06:40;6.78;;;6.03;;
23747;SDS011;12054;53.662;10.126;2023-07-09T12:09:06;6.43;;;5.82;;
23747;SDS011;12054;53.662;10.126;2023-07-09T12:11:46;6.40;;;5.80;;
23747;SDS011;12054;53.662;10.126;2023-07-09T12:14:14;7.15;;;5.95;;
23747;SDS011;12054;53.662;10.126;2023-07-09T12:16:42;8.63;;;5.50;;
23747;SDS011;12054;53.662;10.126;2023-07-09T12:19:12;7.68;;;6.25;;
23747;SDS011;12054;53.662;10.126;2023-07-09T12:21:40;6.63;;;6.03;;
23747;SDS011;12054;53.662;10.126;2023-07-09T12:24:18;6.25;;;5.65;;
23747;SDS011;12054;53.662;10.126;2023-07-09T12:27:15;6.43;;;5.82;;
23747;SDS011;12054;53.662;10.126;2023-07-09T12:29:46;6.22;;;5.63;;
23747;SDS011;12054;53.662;10.126;2023-07-09T12:32:13;6.68;;;5.45;;
23747;SDS011;12054;53.662;10.126;2023-07-09T12:34:40;6.45;;;5.85;;
23747;SDS011;12054;53.662;10.126;2023-07-09T12:37:08;6.18;;;5.47;;
23747;SDS011;12054;53.662;10.126;2023-07-09T12:39:38;6.10;;;5.50;;
23747;SDS011;12054;53.662;10.126;2023-07-09T12:42:04;6.68;;;5.43;;
23747;SDS011;12054;53.662;10.126;2023-07-09T12:44:34;6.72;;;6.00;;
23747;SDS011;12054;53.662;10.126;2023-07-09T12:47:01;6.93;;;6.00;;
23747;SDS011;12054;53.662;10.126;2023-07-09T12:49:28;6.10;;;5.55;;
23747;SDS011;12054;53.662;10.126;2023-07-09T12:52:00;5.97;;;5.32;;
23747;SDS011;12054;53.662;10.126;2023-07-09T12:54:28;6.70;;;5.38;;
23747;SDS011;12054;53.662;10.126;2023-07-09T12:56:55;6.15;;;5.50;;
23747;SDS011;12054;53.662;10.126;2023-07-09T12:59:22;6.20;;;5.60;;
23747;SDS011;12054;53.662;10.126;2023-07-09T13:04:32;6.03;;;5.43;;
23747;SDS011;12054;53.662;10.126;2023-07-09T13:07:01;5.80;;;5.30;;
23747;SDS011;12054;53.662;10.126;2023-07-09T13:09:27;6.20;;;5.63;;
23747;SDS011;12054;53.662;10.126;2023-07-09T13:11:56;6.07;;;5.57;;
23747;SDS011;12054;53.662;10.126;2023-07-09T13:16:51;7.00;;;5.82;;
23747;SDS011;12054;53.662;10.126;2023-07-09T13:19:18;6.43;;;5.70;;
23747;SDS011;12054;53.662;10.126;2023-07-09T13:21:44;6.00;;;5.50;;
23747;SDS011;12054;53.662;10.126;2023-07-09T13:24:23;6.07;;;5.45;;
23747;SDS011;12054;53.662;10.126;2023-07-09T13:26:51;5.80;;;5.20;;
23747;SDS011;12054;53.662;10.126;2023-07-09T13:29:17;6.57;;;5.85;;
23747;SDS011;12054;53.662;10.126;2023-07-09T13:31:44;7.32;;;6.40;;
23747;SDS011;12054;53.662;10.126;2023-07-09T13:34:32;7.72;;;5.53;;
23747;SDS011;12054;53.662;10.126;2023-07-09T13:36:58;7.97;;;5.70;;
23747;SDS011;12054;53.662;10.126;2023-07-09T13:39:24;7.05;;;5.28;;
23747;SDS011;12054;53.662;10.126;2023-07-09T13:41:50;7.30;;;5.72;;
23747;SDS011;12054;53.662;10.126;2023-07-09T13:44:21;12.57;;;6.13;;
23747;SDS011;12054;53.662;10.126;2023-07-09T13:46:52;6.15;;;5.55;;
23747;SDS011;12054;53.662;10.126;2023-07-09T13:49:20;6.38;;;5.60;;
23747;SDS011;12054;53.662;10.126;2023-07-09T13:51:49;6.47;;;5.88;;
23747;SDS011;12054;53.662;10.126;2023-07-09T13:54:18;6.55;;;5.75;;
23747;SDS011;12054;53.662;10.126;2023-07-09T13:56:46;7.80;;;6.05;;
23747;SDS011;12054;53.662;10.126;2023-07-09T13:59:16;7.90;;;6.65;;
23747;SDS011;12054;53.662;10.126;2023-07-09T14:01:44;6.63;;;5.88;;
23747;SDS011;12054;53.662;10.126;2023-07-09T14:04:11;7.10;;;5.85;;
23747;SDS011;12054;53.662;10.126;2023-07-09T14:06:37;6.20;;;5.60;;
23747;SDS011;12054;53.662;10.126;2023-07-09T14:09:03;7.97;;;5.50;;
23747;SDS011;12054;53.662;10.126;2023-07-09T14:11:29;6.45;;;5.85;;
23747;SDS011;12054;53.662;10.126;2023-07-09T14:13:55;7.05;;;6.35;;
23747;SDS011;12054;53.662;10.126;2023-07-09T14:16:21;6.00;;;5.40;;
23747;SDS011;12054;53.662;10.126;2023-07-09T14:18:46;7.50;;;6.70;;
23747;SDS011;12054;53.662;10.126;2023-07-09T14:21:16;9.45;;;8.07;;
23747;SDS011;12054;53.662;10.126;2023-07-09T14:23:45;6.70;;;6.10;;
23747;SDS011;12054;53.662;10.126;2023-07-09T14:26:11;7.10;;;5.78;;
23747;SDS011;12054;53.662;10.126;2023-07-09T14:28:36;6.13;;;5.53;;
23747;SDS011;12054;53.662;10.126;2023-07-09T14:31:04;7.25;;;6.43;;
23747;SDS011;12054;53.662;10.126;2023-07-09T14:33:46;8.77;;;7.90;;
23747;SDS011;12054;53.662;10.126;2023-07-09T14:36:12;8.40;;;6.35;;
23747;SDS011;12054;53.662;10.126;2023-07-09T14:38:37;7.50;;;6.75;;
23747;SDS011;12054;53.662;10.126;2023-07-09T14:41:04;7.03;;;5.97;;
23747;SDS011;12054;53.662;10.126;2023-07-09T14:43:47;6.50;;;5.82;;
23747;SDS011;12054;53.662;10.126;2023-07-09T14:46:13;6.85;;;5.97;;
23747;SDS011;12054;53.662;10.126;2023-07-09T14:48:38;9.18;;;6.20;;
23747;SDS011;12054;53.662;10.126;2023-07-09T14:51:14;5.97;;;5.35;;
23747;SDS011;12054;53.662;10.126;2023-07-09T14:53:43;9.80;;;5.18;;
23747;SDS011;12054;53.662;10.126;2023-07-09T14:56:09;6.75;;;5.65;;
23747;SDS011;12054;53.662;10.126;2023-07-09T14:58:38;11.07;;;5.60;;
23747;SDS011;12054;53.662;10.126;2023-07-09T15:01:03;6.22;;;5.63;;
23747;SDS011;12054;53.662;10.126;2023-07-09T15:03:29;7.45;;;5.97;;
23747;SDS011;12054;53.662;10.126;2023-07-09T15:05:55;7.70;;;6.00;;
23747;SDS011;12054;53.662;10.126;2023-07-09T15:08:22;6.63;;;5.82;;
23747;SDS011;12054;53.662;10.126;2023-07-09T15:10:49;6.20;;;5.60;;
23747;SDS011;12054;53.662;10.126;2023-07-09T15:13:16;6.30;;;5.68;;
23747;SDS011;12054;53.662;10.126;2023-07-09T15:15:44;6.85;;;5.43;;